Time,TemperatureF,DewpointF,PressureIn,WindDirection,WindDirectionDegrees,WindSpeedMPH,WindSpeedGustMPH,Humidity,HourlyPrecipIn,Conditions,Clouds,dailyrainin,SoftwareType,DateUTC
2013-03-16 00:08:00,42.8,36.1,29.79,NNW,337,2.7,-999.0,77,-99.99,,,0.00,Acu-Link.com,2013-03-16 05:08:00,
2013-03-16 00:24:00,41.7,35.4,29.80,ENE,67,3.2,-999.0,78,-99.99,,,0.00,Acu-Link.com,2013-03-16 05:24:00,
2013-03-16 00:39:00,40.6,35.2,29.80,NNE,22,2.2,-999.0,81,-99.99,,,0.00,Acu-Link.com,2013-03-16 05:39:00,
2013-03-16 00:54:00,39.6,34.9,29.81,NNE,22,1.7,-999.0,83,-99.99,,,0.00,Acu-Link.com,2013-03-16 05:54:00,
2013-03-16 01:09:00,39.4,34.4,29.81,NNW,337,1.7,-999.0,82,-99.99,,,0.00,Acu-Link.com,2013-03-16 06:09:00,
2013-03-16 01:24:00,39.2,33.9,29.82,ENE,67,6.3,-999.0,81,-99.99,,,0.00,Acu-Link.com,2013-03-16 06:24:00,
2013-03-16 01:40:00,39.0,33.4,29.84,NNW,337,2.7,-999.0,80,-99.99,,,0.00,Acu-Link.com,2013-03-16 06:40:00,
2013-03-16 01:55:00,38.5,32.9,29.84,NW,315,6.3,-999.0,80,-99.99,,,0.00,Acu-Link.com,2013-03-16 06:55:00,
2013-03-16 02:10:00,37.8,31.9,29.86,NNW,337,7.3,-999.0,79,-99.99,,,0.00,Acu-Link.com,2013-03-16 07:10:00,
2013-03-16 02:25:00,36.9,31.0,29.85,NNW,337,7.8,-999.0,79,-99.99,,,0.00,Acu-Link.com,2013-03-16 07:25:00,
2013-03-16 02:40:00,35.4,30.5,29.87,NE,45,2.7,-999.0,82,-99.99,,,0.00,Acu-Link.com,2013-03-16 07:40:00,
2013-03-16 02:55:00,33.6,29.3,29.87,NNE,22,5.8,-999.0,84,-99.99,,,0.00,Acu-Link.com,2013-03-16 07:55:00,
2013-03-16 03:10:00,33.1,29.4,29.88,East,90,4.2,-999.0,86,-99.99,,,0.00,Acu-Link.com,2013-03-16 08:10:00,
2013-03-16 03:26:00,32.7,29.0,29.88,NE,45,8.9,-999.0,86,-99.99,,,0.00,Acu-Link.com,2013-03-16 08:26:00,
2013-03-16 03:41:00,31.6,27.6,29.90,NNW,337,10.4,-999.0,85,-99.99,,,0.00,Acu-Link.com,2013-03-16 08:41:00,
2013-03-16 04:26:00,32.0,27.7,29.91,ENE,67,2.7,-999.0,84,-99.99,,,0.00,Acu-Link.com,2013-03-16 09:26:00,
2013-03-16 04:42:00,32.0,27.7,29.92,WNW,292,2.7,-999.0,84,-99.99,,,0.00,Acu-Link.com,2013-03-16 09:42:00,
2013-03-16 04:57:00,32.0,27.7,29.93,North,0,3.2,-999.0,84,-99.99,,,0.00,Acu-Link.com,2013-03-16 09:57:00,
2013-03-16 05:12:00,32.2,27.9,29.95,WNW,292,6.8,-999.0,84,-99.99,,,0.00,Acu-Link.com,2013-03-16 10:12:00,
2013-03-16 05:28:00,32.2,27.3,29.96,NNE,22,4.2,-999.0,82,-99.99,,,0.00,Acu-Link.com,2013-03-16 10:28:00,
2013-03-16 05:43:00,32.2,27.0,29.95,East,90,6.8,-999.0,81,-99.99,,,0.00,Acu-Link.com,2013-03-16 10:43:00,
2013-03-16 05:58:00,32.0,25.9,29.95,NNE,22,7.3,-999.0,78,-99.99,,,0.00,Acu-Link.com,2013-03-16 10:58:00,
2013-03-16 06:13:00,31.8,25.7,29.97,North,0,4.2,-999.0,78,-99.99,,,0.00,Acu-Link.com,2013-03-16 11:13:00,
2013-03-16 06:28:00,31.5,25.4,29.98,NNE,22,4.2,-999.0,78,-99.99,,,0.00,Acu-Link.com,2013-03-16 11:28:00,
2013-03-16 06:43:00,31.3,25.3,29.98,West,270,3.2,-999.0,78,-99.99,,,0.00,Acu-Link.com,2013-03-16 11:43:00,
2013-03-16 06:58:00,30.7,24.0,29.98,NNW,337,4.2,-999.0,76,-99.99,,,0.00,Acu-Link.com,2013-03-16 11:58:00,
2013-03-16 07:13:00,30.2,23.6,29.99,West,270,8.3,-999.0,76,-99.99,,,0.00,Acu-Link.com,2013-03-16 12:13:00,
2013-03-16 07:28:00,29.7,23.4,29.98,North,0,2.2,-999.0,77,-99.99,,,0.00,Acu-Link.com,2013-03-16 12:28:00,
2013-03-16 07:44:00,29.5,23.2,29.99,NE,45,3.2,-999.0,77,-99.99,,,0.00,Acu-Link.com,2013-03-16 12:44:00,
2013-03-16 07:59:00,29.3,22.7,29.99,NNE,22,6.8,-999.0,76,-99.99,,,0.00,Acu-Link.com,2013-03-16 12:59:00,
2013-03-16 08:14:00,28.9,22.3,30.00,ENE,67,5.8,-999.0,76,-99.99,,,0.00,Acu-Link.com,2013-03-16 13:14:00,
2013-03-16 08:29:00,28.9,22.6,29.99,NNW,337,5.3,-999.0,77,-99.99,,,0.00,Acu-Link.com,2013-03-16 13:29:00,
2013-03-16 08:44:00,30.0,23.4,29.99,NNE,22,3.7,-999.0,76,-99.99,,,0.00,Acu-Link.com,2013-03-16 13:44:00,
2013-03-16 09:00:00,29.5,22.6,29.99,NNE,22,8.9,-999.0,75,-99.99,,,0.00,Acu-Link.com,2013-03-16 14:00:00,
2013-03-16 09:15:00,29.1,22.5,30.00,NNE,22,4.2,-999.0,76,-99.99,,,0.00,Acu-Link.com,2013-03-16 14:15:00,
2013-03-16 09:30:00,28.9,22.6,30.00,NNE,22,3.7,-999.0,77,-99.99,,,0.00,Acu-Link.com,2013-03-16 14:30:00,
2013-03-16 09:45:00,29.7,21.8,30.00,West,270,6.8,-999.0,72,-99.99,,,0.00,Acu-Link.com,2013-03-16 14:45:00,
2013-03-16 10:00:00,29.1,21.2,29.99,NE,45,6.3,-999.0,72,-99.99,,,0.00,Acu-Link.com,2013-03-16 15:00:00,
2013-03-16 10:16:00,29.7,20.8,30.02,WNW,292,6.3,-999.0,69,-99.99,,,0.00,Acu-Link.com,2013-03-16 15:16:00,
2013-03-16 10:31:00,28.8,20.3,30.02,ENE,67,3.7,-999.0,70,-99.99,,,0.00,Acu-Link.com,2013-03-16 15:31:00,
2013-03-16 11:01:00,28.4,20.2,30.03,NE,45,4.2,-999.0,71,-99.99,,,0.00,Acu-Link.com,2013-03-16 16:01:00,
2013-03-16 11:17:00,28.9,20.4,30.03,NNE,22,5.3,-999.0,70,-99.99,,,0.00,Acu-Link.com,2013-03-16 16:17:00,
2013-03-16 11:32:00,30.4,21.1,30.03,ENE,67,4.2,-999.0,68,-99.99,,,0.00,Acu-Link.com,2013-03-16 16:32:00,
2013-03-16 11:47:00,29.5,19.9,30.03,NE,45,8.3,-999.0,67,-99.99,,,0.00,Acu-Link.com,2013-03-16 16:47:00,
2013-03-16 12:02:00,29.5,20.3,30.03,NE,45,4.2,-999.0,68,-99.99,,,0.00,Acu-Link.com,2013-03-16 17:02:00,
2013-03-16 12:17:00,30.6,20.6,30.04,NNE,22,5.3,-999.0,66,-99.99,,,0.00,Acu-Link.com,2013-03-16 17:17:00,
2013-03-16 12:32:00,31.1,20.7,30.04,NNW,337,7.8,-999.0,65,-99.99,,,0.00,Acu-Link.com,2013-03-16 17:32:00,
2013-03-16 12:48:00,31.5,20.7,30.04,North,0,7.8,-999.0,64,-99.99,,,0.00,Acu-Link.com,2013-03-16 17:48:00,
2013-03-16 13:03:00,32.9,21.7,30.04,NNE,22,5.3,-999.0,63,-99.99,,,0.00,Acu-Link.com,2013-03-16 18:03:00,
2013-03-16 13:18:00,33.6,21.6,30.03,NE,45,10.9,-999.0,61,-99.99,,,0.00,Acu-Link.com,2013-03-16 18:18:00,
2013-03-16 13:33:00,34.2,21.4,30.02,NNE,22,6.8,-999.0,59,-99.99,,,0.00,Acu-Link.com,2013-03-16 18:33:00,
2013-03-16 13:49:00,35.8,21.7,30.02,NE,45,7.8,-999.0,56,-99.99,,,0.00,Acu-Link.com,2013-03-16 18:49:00,
2013-03-16 14:04:00,37.9,22.3,30.01,SSE,157,7.3,-999.0,53,-99.99,,,0.00,Acu-Link.com,2013-03-16 19:04:00,
2013-03-16 14:19:00,36.9,22.3,30.01,NNE,22,6.3,-999.0,55,-99.99,,,0.00,Acu-Link.com,2013-03-16 19:19:00,
2013-03-16 14:34:00,37.2,21.7,30.01,NE,45,3.7,-999.0,53,-99.99,,,0.00,Acu-Link.com,2013-03-16 19:34:00,
2013-03-16 14:50:00,36.7,22.1,30.01,NE,45,9.4,-999.0,55,-99.99,,,0.00,Acu-Link.com,2013-03-16 19:50:00,
2013-03-16 15:05:00,35.6,21.5,30.00,North,0,4.7,-999.0,56,-99.99,,,0.00,Acu-Link.com,2013-03-16 20:05:00,
2013-03-16 15:20:00,34.9,21.2,29.99,WNW,292,5.8,-999.0,57,-99.99,,,0.00,Acu-Link.com,2013-03-16 20:20:00,
2013-03-16 15:35:00,34.5,21.3,30.00,NE,45,6.3,-999.0,58,-99.99,,,0.00,Acu-Link.com,2013-03-16 20:35:00,
2013-03-16 15:51:00,34.9,21.2,29.99,NNE,22,3.7,-999.0,57,-99.99,,,0.00,Acu-Link.com,2013-03-16 20:51:00,
2013-03-16 16:21:00,36.1,21.9,29.98,NNE,22,6.8,-999.0,56,-99.99,,,0.00,Acu-Link.com,2013-03-16 21:21:00,
2013-03-16 16:36:00,35.2,21.1,29.97,North,0,3.7,-999.0,56,-99.99,,,0.00,Acu-Link.com,2013-03-16 21:36:00,
2013-03-16 17:07:00,35.2,21.1,29.97,NE,45,7.8,-999.0,56,-99.99,,,0.00,Acu-Link.com,2013-03-16 22:07:00,
2013-03-16 17:22:00,35.4,21.7,29.98,East,90,3.2,-999.0,57,-99.99,,,0.00,Acu-Link.com,2013-03-16 22:22:00,
2013-03-16 17:37:00,35.2,21.9,29.99,North,0,3.7,-999.0,58,-99.99,,,0.00,Acu-Link.com,2013-03-16 22:37:00,
2013-03-16 17:52:00,35.1,22.2,29.98,ESE,112,4.2,-999.0,59,-99.99,,,0.00,Acu-Link.com,2013-03-16 22:52:00,
2013-03-16 18:07:00,34.9,22.0,30.00,ESE,112,4.2,-999.0,59,-99.99,,,0.00,Acu-Link.com,2013-03-16 23:07:00,
2013-03-16 18:22:00,34.7,22.3,30.00,ESE,112,2.7,-999.0,60,-99.99,,,0.00,Acu-Link.com,2013-03-16 23:22:00,
2013-03-16 18:38:00,34.3,21.9,29.99,NE,45,2.7,-999.0,60,-99.99,,,0.00,Acu-Link.com,2013-03-16 23:38:00,
2013-03-16 18:53:00,34.2,22.2,29.99,ENE,67,5.8,-999.0,61,-99.99,,,0.00,Acu-Link.com,2013-03-16 23:53:00,
2013-03-16 19:08:00,34.0,22.4,29.99,East,90,3.7,-999.0,62,-99.99,,,0.00,Acu-Link.com,2013-03-17 00:08:00,
2013-03-16 19:24:00,33.6,21.6,29.99,NNE,22,5.3,-999.0,61,-99.99,,,0.00,Acu-Link.com,2013-03-17 00:24:00,
2013-03-16 19:39:00,33.4,21.8,29.99,SE,135,2.2,-999.0,62,-99.99,,,0.00,Acu-Link.com,2013-03-17 00:39:00,
2013-03-16 19:54:00,33.1,22.3,30.00,ENE,67,4.7,-999.0,64,-99.99,,,0.00,Acu-Link.com,2013-03-17 00:54:00,
2013-03-16 20:09:00,32.9,22.1,30.02,NE,45,3.2,-999.0,64,-99.99,,,0.00,Acu-Link.com,2013-03-17 01:09:00,
2013-03-16 20:25:00,32.7,22.3,30.02,ENE,67,2.2,-999.0,65,-99.99,,,0.00,Acu-Link.com,2013-03-17 01:25:00,
2013-03-16 20:40:00,32.7,22.6,30.02,ENE,67,1.7,-999.0,66,-99.99,,,0.00,Acu-Link.com,2013-03-17 01:40:00,
2013-03-16 20:55:00,32.5,22.8,30.02,SW,225,2.2,-999.0,67,-99.99,,,0.00,Acu-Link.com,2013-03-17 01:55:00,
2013-03-16 21:10:00,32.4,23.0,30.02,ENE,67,3.7,-999.0,68,-99.99,,,0.00,Acu-Link.com,2013-03-17 02:10:00,
2013-03-16 21:26:00,32.2,22.8,30.01,SE,135,7.8,-999.0,68,-99.99,,,0.00,Acu-Link.com,2013-03-17 02:26:00,
2013-03-16 21:41:00,32.0,23.0,30.02,NNE,22,2.7,-999.0,69,-99.99,,,0.00,Acu-Link.com,2013-03-17 02:41:00,
2013-03-16 21:56:00,32.0,23.0,30.03,NE,45,4.7,-999.0,69,-99.99,,,0.00,Acu-Link.com,2013-03-17 02:56:00,
2013-03-16 22:12:00,31.6,23.0,30.04,NNE,22,3.2,-999.0,70,-99.99,,,0.00,Acu-Link.com,2013-03-17 03:12:00,
2013-03-16 22:27:00,31.5,23.2,30.04,NNE,22,4.7,-999.0,71,-99.99,,,0.00,Acu-Link.com,2013-03-17 03:27:00,
2013-03-16 22:42:00,31.3,22.7,30.04,SE,135,2.2,-999.0,70,-99.99,,,0.00,Acu-Link.com,2013-03-17 03:42:00,
2013-03-16 22:57:00,31.1,22.8,30.05,SSW,202,2.2,-999.0,71,-99.99,,,0.00,Acu-Link.com,2013-03-17 03:57:00,
2013-03-16 23:12:00,31.1,23.1,30.04,SSE,157,3.7,-999.0,72,-99.99,,,0.00,Acu-Link.com,2013-03-17 04:12:00,
2013-03-16 23:28:00,30.6,24.0,30.04,East,90,3.2,-999.0,76,-99.99,,,0.00,Acu-Link.com,2013-03-17 04:28:00,
2013-03-16 23:43:00,30.2,23.9,30.02,ESE,112,5.3,-999.0,77,-99.99,,,0.00,Acu-Link.com,2013-03-17 04:43:00,
2013-03-16 23:58:00,30.0,23.7,30.02,East,90,3.2,-999.0,77,-99.99,,,0.00,Acu-Link.com,2013-03-17 04:58:00,